Aline, OK

1:18 PM CDT on July 02, 2015 (GMT -0500)
Amateur Radio W5PDB | | Change Station
CLOSE
Current Station
Personal Weather Station
Location: Jet, OK
Elevation: 1280 ft
Nearby Weather Stations

Elev 1280 ft 36.67 °N, 98.18 °W | Updated 15 seconds ago

Mostly Cloudy
Mostly Cloudy
93.2 °F
Feels Like 89 °F
N
3.0
Wind Variable Wind from NE
Gusts 6.0 mph

Today
High -- | Low -- °F
--% Chance of Precip.
Yesterday
High -- | Low -- °F
Precip. -- in
6:19 AM 8:55 PM
Waxing Gibbous, 99% visible
Pressure 29.85 in
Visibility 10.0 miles
Clouds Few 14000 ft
Scattered Clouds 19000 ft
Heat Index 89 °F
Dew Point 42 °F
Humidity 17%
Rainfall 0.00 in
Snow Depth Not available.
UV 10 out of 12
Pollen 4.60 out of 12
Air Quality Not available.
Flu Activity Not available.
METAR KEND 021758Z AUTO 03010KT 10SM FEW140 SCT190 34/21 A2989 RMK AO2 SLP106 T03440209 10346 20227 TSNO $

More Conditions Fewer Conditions

Pressure 29.85 in
Visibility 10.0 miles
Clouds Few 14000 ft
Scattered Clouds 19000 ft
Heat Index 89 °F
Dew Point 42 °F
Humidity 17%
Rainfall 0.00 in
Snow Depth Not available.
UV 10 out of 12
Pollen 4.60 out of 12
Air Quality Not available.
Flu Activity Not available.
METAR KEND 021758Z AUTO 03010KT 10SM FEW140 SCT190 34/21 A2989 RMK AO2 SLP106 T03440209 10346 20227 TSNO $

More Conditions Fewer Conditions

10-Day Weather Forecast

×

Almanac

Astronomy

Jul. 02, 2015 Rise Set
Actual Time
Civil Twilight
Nautical Twilight
Astronomical Twilight
Moon
Length of Visible Light
Length of Day
Tomorrow will be .
, % of the Moon is Illuminated

Today's Extremes

State Highs State Lows

Community

WunderPhotos

Upload Photos

1,834,507 photos uploaded!

WunderBlogs® & News

Nearby

Air Quality

  Air Quality AQ Index Pollutant
Not available.

Snow Depth

Station Depth Elevation

Earthquake Activity

City Distance Mag. Time & Date
Minimum magnitude displayed is 2.5.

Coastal Water Temperatures

Place Temperature

Stations

Nearby Weather Stations

Station Location Temp. Windchill Dew Point Humidity Wind Precip. Elev Updated Type